sensor_id;sensor_type;location;lat;lon;timestamp;pressure;altitude;pressure_sealevel;temperature;humidity
55755;BME280;41674;52.290;-1.474;2023-06-14T00:01:36;101215.00;;;13.91;49.96
55755;BME280;41674;52.290;-1.474;2023-06-14T00:04:05;101217.30;;;13.20;52.44
55755;BME280;41674;52.290;-1.474;2023-06-14T00:06:35;101221.34;;;11.57;56.34
55755;BME280;41674;52.290;-1.474;2023-06-14T00:09:05;101225.55;;;10.97;58.43
55755;BME280;41674;52.290;-1.474;2023-06-14T00:14:04;101221.05;;;12.27;56.76
55755;BME280;41674;52.290;-1.474;2023-06-14T00:16:34;101221.72;;;13.09;54.85
55755;BME280;41674;52.290;-1.474;2023-06-14T00:19:03;101221.88;;;13.83;53.39
55755;BME280;41674;52.290;-1.474;2023-06-14T00:21:33;101220.03;;;13.61;53.22
55755;BME280;41674;52.290;-1.474;2023-06-14T00:24:02;101221.32;;;13.25;54.68
55755;BME280;41674;52.290;-1.474;2023-06-14T00:26:32;101218.37;;;12.89;57.01
55755;BME280;41674;52.290;-1.474;2023-06-14T00:29:01;101215.45;;;13.38;55.45
55755;BME280;41674;52.290;-1.474;2023-06-14T00:31:31;101214.93;;;13.91;54.66
55755;BME280;41674;52.290;-1.474;2023-06-14T00:34:00;101219.82;;;13.93;55.30
55755;BME280;41674;52.290;-1.474;2023-06-14T00:36:30;101219.47;;;14.34;54.06
55755;BME280;41674;52.290;-1.474;2023-06-14T00:39:00;101217.39;;;14.62;53.56
55755;BME280;41674;52.290;-1.474;2023-06-14T00:41:30;101225.37;;;14.06;54.85
55755;BME280;41674;52.290;-1.474;2023-06-14T00:43:59;101221.12;;;14.87;53.24
55755;BME280;41674;52.290;-1.474;2023-06-14T00:46:29;101226.39;;;14.23;53.51
55755;BME280;41674;52.290;-1.474;2023-06-14T00:48:59;101226.07;;;13.85;55.00
55755;BME280;41674;52.290;-1.474;2023-06-14T00:51:29;101223.76;;;13.94;56.55
55755;BME280;41674;52.290;-1.474;2023-06-14T00:53:57;101222.03;;;14.03;56.11
55755;BME280;41674;52.290;-1.474;2023-06-14T00:56:27;101223.24;;;13.97;56.85
55755;BME280;41674;52.290;-1.474;2023-06-14T00:58:58;101214.30;;;14.39;54.70
55755;BME280;41674;52.290;-1.474;2023-06-14T01:01:26;101211.97;;;14.23;53.69
55755;BME280;41674;52.290;-1.474;2023-06-14T01:03:56;101209.41;;;14.27;54.43
55755;BME280;41674;52.290;-1.474;2023-06-14T01:09:06;101208.43;;;13.65;56.55
55755;BME280;41674;52.290;-1.474;2023-06-14T01:11:28;101213.17;;;13.32;58.37
55755;BME280;41674;52.290;-1.474;2023-06-14T01:13:53;101210.01;;;12.20;64.44
55755;BME280;41674;52.290;-1.474;2023-06-14T01:16:23;101213.65;;;11.72;66.13
55755;BME280;41674;52.290;-1.474;2023-06-14T01:18:53;101213.55;;;11.36;67.73
55755;BME280;41674;52.290;-1.474;2023-06-14T01:21:22;101213.03;;;10.64;73.45
55755;BME280;41674;52.290;-1.474;2023-06-14T01:23:51;101214.03;;;11.41;73.64
55755;BME280;41674;52.290;-1.474;2023-06-14T01:26:22;101210.20;;;11.98;71.21
55755;BME280;41674;52.290;-1.474;2023-06-14T01:28:51;101213.29;;;11.86;72.37
55755;BME280;41674;52.290;-1.474;2023-06-14T01:31:21;101215.79;;;12.85;69.29
55755;BME280;41674;52.290;-1.474;2023-06-14T01:33:50;101217.34;;;12.24;69.43
55755;BME280;41674;52.290;-1.474;2023-06-14T01:36:20;101220.78;;;12.97;66.94
55755;BME280;41674;52.290;-1.474;2023-06-14T01:38:50;101225.39;;;12.77;66.27
55755;BME280;41674;52.290;-1.474;2023-06-14T01:41:20;101230.46;;;12.94;65.47
55755;BME280;41674;52.290;-1.474;2023-06-14T01:43:49;101231.63;;;12.69;66.68
55755;BME280;41674;52.290;-1.474;2023-06-14T01:46:17;101234.66;;;13.20;65.48
55755;BME280;41674;52.290;-1.474;2023-06-14T01:48:47;101237.09;;;12.74;68.10
55755;BME280;41674;52.290;-1.474;2023-06-14T01:51:16;101237.64;;;13.41;65.27
55755;BME280;41674;52.290;-1.474;2023-06-14T01:53:46;101237.99;;;12.67;67.25
55755;BME280;41674;52.290;-1.474;2023-06-14T01:56:15;101232.92;;;12.87;67.58
55755;BME280;41674;52.290;-1.474;2023-06-14T01:58:45;101234.50;;;13.53;65.23
55755;BME280;41674;52.290;-1.474;2023-06-14T02:01:15;101235.37;;;13.61;65.40
55755;BME280;41674;52.290;-1.474;2023-06-14T02:03:44;101236.21;;;13.34;66.83
55755;BME280;41674;52.290;-1.474;2023-06-14T02:06:14;101233.61;;;13.69;65.07
55755;BME280;41674;52.290;-1.474;2023-06-14T02:08:43;101233.44;;;12.80;67.39
55755;BME280;41674;52.290;-1.474;2023-06-14T02:11:13;101232.70;;;13.68;65.08
55755;BME280;41674;52.290;-1.474;2023-06-14T02:13:42;101234.39;;;13.45;66.02
55755;BME280;41674;52.290;-1.474;2023-06-14T02:16:12;101235.89;;;13.13;65.58
55755;BME280;41674;52.290;-1.474;2023-06-14T02:18:41;101234.47;;;13.77;64.18
55755;BME280;41674;52.290;-1.474;2023-06-14T02:21:11;101234.35;;;13.61;63.81
55755;BME280;41674;52.290;-1.474;2023-06-14T02:23:41;101233.72;;;13.75;63.07
55755;BME280;41674;52.290;-1.474;2023-06-14T02:26:10;101233.09;;;13.69;63.57
55755;BME280;41674;52.290;-1.474;2023-06-14T02:28:40;101230.48;;;13.59;63.94
55755;BME280;41674;52.290;-1.474;2023-06-14T02:31:09;101233.23;;;13.41;64.64
55755;BME280;41674;52.290;-1.474;2023-06-14T02:33:39;101234.88;;;12.63;67.88
55755;BME280;41674;52.290;-1.474;2023-06-14T02:36:08;101229.01;;;12.38;69.36
55755;BME280;41674;52.290;-1.474;2023-06-14T02:41:07;101223.67;;;13.87;64.16
55755;BME280;41674;52.290;-1.474;2023-06-14T02:43:37;101222.96;;;13.26;64.46
55755;BME280;41674;52.290;-1.474;2023-06-14T02:46:06;101223.91;;;13.33;65.27
55755;BME280;41674;52.290;-1.474;2023-06-14T02:48:36;101227.06;;;12.74;66.66
55755;BME280;41674;52.290;-1.474;2023-06-14T02:51:05;101227.99;;;12.39;69.30
55755;BME280;41674;52.290;-1.474;2023-06-14T02:53:35;101226.20;;;13.00;67.03
55755;BME280;41674;52.290;-1.474;2023-06-14T02:56:05;101221.51;;;13.50;64.90
55755;BME280;41674;52.290;-1.474;2023-06-14T02:58:35;101221.12;;;13.32;65.09
55755;BME280;41674;52.290;-1.474;2023-06-14T03:01:04;101218.74;;;13.28;64.84
55755;BME280;41674;52.290;-1.474;2023-06-14T03:03:33;101216.62;;;13.00;65.02
55755;BME280;41674;52.290;-1.474;2023-06-14T03:06:03;101215.59;;;12.92;65.96
55755;BME280;41674;52.290;-1.474;2023-06-14T03:08:32;101216.40;;;12.33;68.79
55755;BME280;41674;52.290;-1.474;2023-06-14T03:11:02;101215.15;;;12.88;67.02
55755;BME280;41674;52.290;-1.474;2023-06-14T03:13:32;101213.30;;;12.27;68.63
55755;BME280;41674;52.290;-1.474;2023-06-14T03:16:01;101213.04;;;12.46;68.46
55755;BME280;41674;52.290;-1.474;2023-06-14T03:18:32;101211.34;;;12.78;67.07
55755;BME280;41674;52.290;-1.474;2023-06-14T03:21:00;101213.48;;;12.38;68.48
55755;BME280;41674;52.290;-1.474;2023-06-14T03:25:59;101213.22;;;12.11;69.24
55755;BME280;41674;52.290;-1.474;2023-06-14T03:28:28;101216.05;;;11.41;71.79
55755;BME280;41674;52.290;-1.474;2023-06-14T03:30:58;101214.55;;;12.46;69.82
55755;BME280;41674;52.290;-1.474;2023-06-14T03:33:27;101212.86;;;12.39;69.56
55755;BME280;41674;52.290;-1.474;2023-06-14T03:35:57;101211.97;;;12.94;68.07
55755;BME280;41674;52.290;-1.474;2023-06-14T03:38:26;101207.60;;;12.35;69.48
55755;BME280;41674;52.290;-1.474;2023-06-14T03:40:56;101207.59;;;12.29;70.50
55755;BME280;41674;52.290;-1.474;2023-06-14T03:43:25;101209.31;;;12.20;69.73
55755;BME280;41674;52.290;-1.474;2023-06-14T03:45:54;101210.23;;;12.49;70.68
55755;BME280;41674;52.290;-1.474;2023-06-14T03:48:24;101211.92;;;12.44;71.46
55755;BME280;41674;52.290;-1.474;2023-06-14T03:50:53;101219.56;;;12.17;73.06
55755;BME280;41674;52.290;-1.474;2023-06-14T03:53:23;101216.86;;;12.43;70.64
55755;BME280;41674;52.290;-1.474;2023-06-14T03:55:52;101214.09;;;12.38;71.19
55755;BME280;41674;52.290;-1.474;2023-06-14T03:58:21;101215.48;;;12.29;70.64
55755;BME280;41674;52.290;-1.474;2023-06-14T04:00:51;101220.27;;;12.57;68.89
55755;BME280;41674;52.290;-1.474;2023-06-14T04:03:21;101219.84;;;12.66;69.16
55755;BME280;41674;52.290;-1.474;2023-06-14T04:05:50;101221.68;;;12.75;69.33
55755;BME280;41674;52.290;-1.474;2023-06-14T04:08:19;101225.38;;;12.42;69.97
55755;BME280;41674;52.290;-1.474;2023-06-14T04:10:49;101220.24;;;12.58;69.25
55755;BME280;41674;52.290;-1.474;2023-06-14T04:13:18;101222.03;;;12.81;69.76
55755;BME280;41674;52.290;-1.474;2023-06-14T04:15:47;101222.88;;;12.50;70.62
55755;BME280;41674;52.290;-1.474;2023-06-14T04:18:17;101222.28;;;12.25;72.39
55755;BME280;41674;52.290;-1.474;2023-06-14T04:20:46;101224.55;;;12.68;72.40
55755;BME280;41674;52.290;-1.474;2023-06-14T04:23:16;101228.90;;;13.03;71.17
55755;BME280;41674;52.290;-1.474;2023-06-14T04:25:44;101229.90;;;12.76;70.10
55755;BME280;41674;52.290;-1.474;2023-06-14T04:28:14;101230.18;;;12.65;71.01
55755;BME280;41674;52.290;-1.474;2023-06-14T04:30:43;101231.25;;;12.81;71.12
55755;BME280;41674;52.290;-1.474;2023-06-14T04:33:13;101231.13;;;13.16;70.97
55755;BME280;41674;52.290;-1.474;2023-06-14T04:35:42;101231.39;;;12.95;70.99
55755;BME280;41674;52.290;-1.474;2023-06-14T04:38:12;101231.81;;;13.13;71.03
55755;BME280;41674;52.290;-1.474;2023-06-14T04:40:41;101231.00;;;12.94;70.99
55755;BME280;41674;52.290;-1.474;2023-06-14T04:43:10;101234.07;;;12.97;71.95
55755;BME280;41674;52.290;-1.474;2023-06-14T04:45:39;101234.15;;;12.95;71.65
55755;BME280;41674;52.290;-1.474;2023-06-14T04:48:08;101233.58;;;12.85;72.10
55755;BME280;41674;52.290;-1.474;2023-06-14T04:50:38;101235.04;;;12.84;72.59
55755;BME280;41674;52.290;-1.474;2023-06-14T04:53:07;101228.02;;;13.08;71.95
55755;BME280;41674;52.290;-1.474;2023-06-14T04:55:37;101227.80;;;12.66;72.17
55755;BME280;41674;52.290;-1.474;2023-06-14T04:58:06;101232.44;;;11.60;80.04
55755;BME280;41674;52.290;-1.474;2023-06-14T05:00:35;101228.97;;;11.97;78.29
55755;BME280;41674;52.290;-1.474;2023-06-14T05:03:05;101230.10;;;12.80;74.99
55755;BME280;41674;52.290;-1.474;2023-06-14T05:05:34;101229.20;;;12.97;73.30
55755;BME280;41674;52.290;-1.474;2023-06-14T05:08:03;101226.92;;;13.01;73.89
55755;BME280;41674;52.290;-1.474;2023-06-14T05:10:33;101223.65;;;13.03;73.91
55755;BME280;41674;52.290;-1.474;2023-06-14T05:13:02;101226.00;;;12.79;74.66
55755;BME280;41674;52.290;-1.474;2023-06-14T05:15:37;101226.88;;;13.05;74.72
55755;BME280;41674;52.290;-1.474;2023-06-14T05:18:01;101227.72;;;12.70;76.95
55755;BME280;41674;52.290;-1.474;2023-06-14T05:20:31;101230.37;;;13.50;75.80
55755;BME280;41674;52.290;-1.474;2023-06-14T05:23:00;101233.52;;;13.52;75.60
55755;BME280;41674;52.290;-1.474;2023-06-14T05:25:29;101233.33;;;12.26;78.65
55755;BME280;41674;52.290;-1.474;2023-06-14T05:27:58;101230.26;;;13.25;76.28
55755;BME280;41674;52.290;-1.474;2023-06-14T05:30:28;101228.97;;;13.27;78.08
55755;BME280;41674;52.290;-1.474;2023-06-14T05:32:57;101224.23;;;13.62;75.87
55755;BME280;41674;52.290;-1.474;2023-06-14T05:35:27;101221.73;;;14.02;74.84
55755;BME280;41674;52.290;-1.474;2023-06-14T05:37:57;101219.25;;;13.03;77.62
55755;BME280;41674;52.290;-1.474;2023-06-14T05:40:26;101221.73;;;13.68;77.15
55755;BME280;41674;52.290;-1.474;2023-06-14T05:42:56;101219.20;;;14.54;74.71
55755;BME280;41674;52.290;-1.474;2023-06-14T05:45:25;101222.12;;;13.15;77.75
55755;BME280;41674;52.290;-1.474;2023-06-14T05:47:54;101223.65;;;12.26;81.17
55755;BME280;41674;52.290;-1.474;2023-06-14T05:50:24;101228.82;;;12.49;81.42
55755;BME280;41674;52.290;-1.474;2023-06-14T05:52:53;101234.09;;;11.11;88.66
55755;BME280;41674;52.290;-1.474;2023-06-14T05:55:23;101233.01;;;13.02;81.03
55755;BME280;41674;52.290;-1.474;2023-06-14T05:57:52;101236.24;;;14.19;76.81
55755;BME280;41674;52.290;-1.474;2023-06-14T06:00:21;101236.27;;;14.53;76.51
55755;BME280;41674;52.290;-1.474;2023-06-14T06:02:51;101236.39;;;12.48;81.49
55755;BME280;41674;52.290;-1.474;2023-06-14T06:05:20;101234.40;;;14.08;76.47
55755;BME280;41674;52.290;-1.474;2023-06-14T06:07:50;101231.69;;;14.44;75.61
55755;BME280;41674;52.290;-1.474;2023-06-14T06:10:19;101232.33;;;14.22;77.48
55755;BME280;41674;52.290;-1.474;2023-06-14T06:12:49;101237.41;;;13.37;80.64
55755;BME280;41674;52.290;-1.474;2023-06-14T06:15:18;101241.44;;;13.49;81.34
55755;BME280;41674;52.290;-1.474;2023-06-14T06:17:48;101242.31;;;13.97;81.04
55755;BME280;41674;52.290;-1.474;2023-06-14T06:20:17;101243.44;;;14.18;79.21
55755;BME280;41674;52.290;-1.474;2023-06-14T06:22:47;101239.77;;;14.92;77.02
55755;BME280;41674;52.290;-1.474;2023-06-14T06:25:17;101240.94;;;14.76;76.97
55755;BME280;41674;52.290;-1.474;2023-06-14T06:27:46;101237.65;;;14.63;75.46
55755;BME280;41674;52.290;-1.474;2023-06-14T06:30:16;101238.81;;;14.90;75.82
55755;BME280;41674;52.290;-1.474;2023-06-14T06:32:45;101237.75;;;15.17;76.15
55755;BME280;41674;52.290;-1.474;2023-06-14T06:35:14;101248.97;;;13.92;77.46
55755;BME280;41674;52.290;-1.474;2023-06-14T06:37:44;101248.89;;;14.19;78.53
55755;BME280;41674;52.290;-1.474;2023-06-14T06:40:13;101252.47;;;14.07;79.71
55755;BME280;41674;52.290;-1.474;2023-06-14T06:42:42;101250.73;;;14.08;80.60
55755;BME280;41674;52.290;-1.474;2023-06-14T06:45:11;101251.60;;;14.08;80.49
55755;BME280;41674;52.290;-1.474;2023-06-14T06:47:41;101252.82;;;14.39;81.17
55755;BME280;41674;52.290;-1.474;2023-06-14T06:50:10;101254.01;;;14.69;78.59
55755;BME280;41674;52.290;-1.474;2023-06-14T06:52:39;101261.39;;;14.02;79.44
55755;BME280;41674;52.290;-1.474;2023-06-14T06:55:09;101258.92;;;14.26;77.60
55755;BME280;41674;52.290;-1.474;2023-06-14T06:57:38;101261.34;;;14.41;80.69
55755;BME280;41674;52.290;-1.474;2023-06-14T07:00:10;101263.41;;;12.93;88.68
55755;BME280;41674;52.290;-1.474;2023-06-14T07:02:38;101260.01;;;12.73;90.44
55755;BME280;41674;52.290;-1.474;2023-06-14T07:05:08;101254.92;;;12.97;89.90
55755;BME280;41674;52.290;-1.474;2023-06-14T07:07:36;101255.05;;;14.42;85.65
55755;BME280;41674;52.290;-1.474;2023-06-14T07:10:06;101254.38;;;14.48;82.64
55755;BME280;41674;52.290;-1.474;2023-06-14T07:12:35;101257.84;;;14.27;85.07
55755;BME280;41674;52.290;-1.474;2023-06-14T07:15:05;101255.20;;;15.79;81.16
55755;BME280;41674;52.290;-1.474;2023-06-14T07:17:34;101258.72;;;15.75;76.47
55755;BME280;41674;52.290;-1.474;2023-06-14T07:20:04;101268.07;;;14.19;84.40
55755;BME280;41674;52.290;-1.474;2023-06-14T07:22:33;101265.98;;;15.76;79.36
55755;BME280;41674;52.290;-1.474;2023-06-14T07:25:02;101267.15;;;15.77;79.51
55755;BME280;41674;52.290;-1.474;2023-06-14T07:27:32;101269.05;;;15.60;81.33
55755;BME280;41674;52.290;-1.474;2023-06-14T07:30:01;101267.92;;;16.33;79.27
55755;BME280;41674;52.290;-1.474;2023-06-14T07:32:31;101265.76;;;16.95;75.43
55755;BME280;41674;52.290;-1.474;2023-06-14T07:35:00;101262.21;;;17.25;72.95
55755;BME280;41674;52.290;-1.474;2023-06-14T07:37:29;101266.02;;;16.88;74.99
55755;BME280;41674;52.290;-1.474;2023-06-14T07:39:59;101265.10;;;17.42;72.23
55755;BME280;41674;52.290;-1.474;2023-06-14T07:42:29;101268.67;;;17.44;73.96
55755;BME280;41674;52.290;-1.474;2023-06-14T07:44:58;101268.01;;;16.31;76.13
55755;BME280;41674;52.290;-1.474;2023-06-14T07:47:28;101269.14;;;16.43;74.60
55755;BME280;41674;52.290;-1.474;2023-06-14T07:49:58;101267.41;;;16.67;78.18
55755;BME280;41674;52.290;-1.474;2023-06-14T07:52:27;101270.59;;;17.46;73.50
55755;BME280;41674;52.290;-1.474;2023-06-14T07:54:57;101273.26;;;16.74;77.14
55755;BME280;41674;52.290;-1.474;2023-06-14T07:57:26;101276.41;;;16.03;80.37
55755;BME280;41674;52.290;-1.474;2023-06-14T07:59:55;101272.21;;;17.77;75.00
55755;BME280;41674;52.290;-1.474;2023-06-14T08:02:26;101270.53;;;17.24;73.78
55755;BME280;41674;52.290;-1.474;2023-06-14T08:04:54;101266.33;;;17.27;75.50
55755;BME280;41674;52.290;-1.474;2023-06-14T08:07:24;101269.22;;;17.71;72.57
55755;BME280;41674;52.290;-1.474;2023-06-14T08:09:53;101269.91;;;17.22;75.15
55755;BME280;41674;52.290;-1.474;2023-06-14T08:12:22;101269.91;;;16.95;72.88
55755;BME280;41674;52.290;-1.474;2023-06-14T08:14:52;101271.86;;;16.98;74.94
55755;BME280;41674;52.290;-1.474;2023-06-14T08:17:21;101274.09;;;18.47;69.47
55755;BME280;41674;52.290;-1.474;2023-06-14T08:19:50;101273.29;;;17.10;73.24
55755;BME280;41674;52.290;-1.474;2023-06-14T08:22:20;101272.22;;;18.01;71.87
55755;BME280;41674;52.290;-1.474;2023-06-14T08:24:49;101269.50;;;18.35;70.50
55755;BME280;41674;52.290;-1.474;2023-06-14T08:27:19;101269.35;;;16.47;77.71
55755;BME280;41674;52.290;-1.474;2023-06-14T08:29:49;101266.82;;;16.13;78.99
55755;BME280;41674;52.290;-1.474;2023-06-14T08:32:18;101264.29;;;16.91;74.97
55755;BME280;41674;52.290;-1.474;2023-06-14T08:34:48;101267.48;;;16.83;76.68
55755;BME280;41674;52.290;-1.474;2023-06-14T08:37:17;101262.93;;;17.76;75.04
55755;BME280;41674;52.290;-1.474;2023-06-14T08:39:46;101267.28;;;16.41;77.40
55755;BME280;41674;52.290;-1.474;2023-06-14T08:42:19;101265.67;;;17.42;73.95
55755;BME280;41674;52.290;-1.474;2023-06-14T08:44:45;101266.16;;;16.20;74.73
55755;BME280;41674;52.290;-1.474;2023-06-14T08:47:15;101263.79;;;17.72;73.79
55755;BME280;41674;52.290;-1.474;2023-06-14T08:49:46;101269.90;;;18.44;71.93
55755;BME280;41674;52.290;-1.474;2023-06-14T08:52:15;101267.17;;;17.93;72.40
55755;BME280;41674;52.290;-1.474;2023-06-14T08:54:44;101266.45;;;17.21;74.72
55755;BME280;41674;52.290;-1.474;2023-06-14T08:57:12;101268.42;;;18.24;71.22
55755;BME280;41674;52.290;-1.474;2023-06-14T08:59:46;101268.48;;;18.38;70.91
55755;BME280;41674;52.290;-1.474;2023-06-14T09:02:12;101258.52;;;16.99;72.84
55755;BME280;41674;52.290;-1.474;2023-06-14T09:04:41;101262.76;;;19.18;67.52
55755;BME280;41674;52.290;-1.474;2023-06-14T09:07:11;101265.83;;;18.38;70.57
55755;BME280;41674;52.290;-1.474;2023-06-14T09:09:40;101258.35;;;19.11;67.54
55755;BME280;41674;52.290;-1.474;2023-06-14T09:12:11;101255.65;;;20.05;66.07
55755;BME280;41674;52.290;-1.474;2023-06-14T09:14:39;101258.68;;;18.73;67.31
55755;BME280;41674;52.290;-1.474;2023-06-14T09:17:08;101263.40;;;18.56;71.74
55755;BME280;41674;52.290;-1.474;2023-06-14T09:19:38;101260.41;;;19.56;66.99
55755;BME280;41674;52.290;-1.474;2023-06-14T09:22:07;101260.77;;;19.97;66.18
55755;BME280;41674;52.290;-1.474;2023-06-14T09:24:36;101259.86;;;19.67;68.83
55755;BME280;41674;52.290;-1.474;2023-06-14T09:27:06;101267.35;;;19.06;69.29
55755;BME280;41674;52.290;-1.474;2023-06-14T09:29:35;101262.19;;;19.33;66.01
55755;BME280;41674;52.290;-1.474;2023-06-14T09:32:06;101257.79;;;19.39;65.71
55755;BME280;41674;52.290;-1.474;2023-06-14T09:34:35;101265.43;;;18.63;70.51
55755;BME280;41674;52.290;-1.474;2023-06-14T09:37:04;101262.24;;;19.54;67.10
55755;BME280;41674;52.290;-1.474;2023-06-14T09:39:33;101260.65;;;19.47;69.09
55755;BME280;41674;52.290;-1.474;2023-06-14T09:44:32;101261.09;;;19.46;65.67
55755;BME280;41674;52.290;-1.474;2023-06-14T09:47:03;101260.25;;;19.93;67.60
55755;BME280;41674;52.290;-1.474;2023-06-14T09:49:31;101260.20;;;19.09;68.29
55755;BME280;41674;52.290;-1.474;2023-06-14T09:52:00;101257.34;;;21.08;65.42
55755;BME280;41674;52.290;-1.474;2023-06-14T09:54:30;101254.66;;;21.09;63.03
55755;BME280;41674;52.290;-1.474;2023-06-14T09:57:00;101260.08;;;19.56;68.62
55755;BME280;41674;52.290;-1.474;2023-06-14T09:59:31;101257.75;;;20.00;65.31
55755;BME280;41674;52.290;-1.474;2023-06-14T10:01:59;101258.48;;;20.16;66.00
55755;BME280;41674;52.290;-1.474;2023-06-14T10:04:30;101252.00;;;19.37;68.67
55755;BME280;41674;52.290;-1.474;2023-06-14T10:06:57;101248.81;;;20.84;64.80
55755;BME280;41674;52.290;-1.474;2023-06-14T10:09:26;101250.27;;;20.66;64.87
55755;BME280;41674;52.290;-1.474;2023-06-14T10:11:56;101246.79;;;20.76;63.16
55755;BME280;41674;52.290;-1.474;2023-06-14T10:14:27;101245.76;;;22.51;60.92
55755;BME280;41674;52.290;-1.474;2023-06-14T10:17:00;101247.17;;;22.05;61.96
55755;BME280;41674;52.290;-1.474;2023-06-14T10:19:27;101247.21;;;21.68;64.36
55755;BME280;41674;52.290;-1.474;2023-06-14T10:21:58;101249.26;;;21.65;63.79
55755;BME280;41674;52.290;-1.474;2023-06-14T10:24:29;101250.79;;;22.22;61.11
55755;BME280;41674;52.290;-1.474;2023-06-14T10:26:56;101250.14;;;21.38;64.37
55755;BME280;41674;52.290;-1.474;2023-06-14T10:29:22;101250.37;;;21.65;65.95
55755;BME280;41674;52.290;-1.474;2023-06-14T10:31:56;101249.58;;;21.90;64.64
55755;BME280;41674;52.290;-1.474;2023-06-14T10:34:23;101244.67;;;21.86;60.65
55755;BME280;41674;52.290;-1.474;2023-06-14T10:37:01;101240.14;;;21.48;59.22
55755;BME280;41674;52.290;-1.474;2023-06-14T10:39:20;101241.48;;;22.08;58.85
55755;BME280;41674;52.290;-1.474;2023-06-14T10:41:52;101243.20;;;22.41;56.90
55755;BME280;41674;52.290;-1.474;2023-06-14T10:44:38;101242.83;;;22.19;56.18
55755;BME280;41674;52.290;-1.474;2023-06-14T10:46:49;101242.16;;;22.62;57.48
55755;BME280;41674;52.290;-1.474;2023-06-14T10:49:17;101244.29;;;22.89;55.12
55755;BME280;41674;52.290;-1.474;2023-06-14T10:51:50;101244.20;;;22.59;55.09
55755;BME280;41674;52.290;-1.474;2023-06-14T10:54:18;101245.72;;;21.17;61.92
55755;BME280;41674;52.290;-1.474;2023-06-14T10:56:47;101242.71;;;22.40;54.52
55755;BME280;41674;52.290;-1.474;2023-06-14T10:59:16;101239.55;;;22.57;53.66
55755;BME280;41674;52.290;-1.474;2023-06-14T11:01:53;101240.01;;;22.56;55.05
55755;BME280;41674;52.290;-1.474;2023-06-14T11:04:17;101237.77;;;22.80;54.29
55755;BME280;41674;52.290;-1.474;2023-06-14T11:06:47;101239.83;;;22.07;53.51
55755;BME280;41674;52.290;-1.474;2023-06-14T11:09:28;101241.64;;;23.06;54.96
55755;BME280;41674;52.290;-1.474;2023-06-14T11:11:43;101234.96;;;22.99;54.22
55755;BME280;41674;52.290;-1.474;2023-06-14T11:14:12;101231.88;;;23.27;53.85
55755;BME280;41674;52.290;-1.474;2023-06-14T11:16:42;101236.52;;;22.54;57.33
55755;BME280;41674;52.290;-1.474;2023-06-14T11:19:11;101228.21;;;23.60;55.88
55755;BME280;41674;52.290;-1.474;2023-06-14T11:21:40;101238.43;;;21.83;58.56
55755;BME280;41674;52.290;-1.474;2023-06-14T11:24:10;101232.38;;;23.00;55.90
55755;BME280;41674;52.290;-1.474;2023-06-14T11:26:40;101222.46;;;24.31;50.53
55755;BME280;41674;52.290;-1.474;2023-06-14T11:29:09;101221.59;;;23.45;53.23
55755;BME280;41674;52.290;-1.474;2023-06-14T11:31:38;101222.67;;;23.30;56.35
55755;BME280;41674;52.290;-1.474;2023-06-14T11:34:08;101218.39;;;24.50;52.76
55755;BME280;41674;52.290;-1.474;2023-06-14T11:36:38;101211.59;;;25.10;49.42
55755;BME280;41674;52.290;-1.474;2023-06-14T11:39:07;101216.50;;;24.37;51.80
55755;BME280;41674;52.290;-1.474;2023-06-14T11:41:37;101224.88;;;22.39;53.94
55755;BME280;41674;52.290;-1.474;2023-06-14T11:44:06;101218.42;;;23.16;55.33
55755;BME280;41674;52.290;-1.474;2023-06-14T11:46:35;101214.79;;;23.89;53.74
55755;BME280;41674;52.290;-1.474;2023-06-14T11:49:04;101211.23;;;24.43;50.66
55755;BME280;41674;52.290;-1.474;2023-06-14T11:51:34;101213.09;;;24.18;49.41
55755;BME280;41674;52.290;-1.474;2023-06-14T11:54:04;101216.46;;;23.97;50.34
55755;BME280;41674;52.290;-1.474;2023-06-14T11:56:32;101205.62;;;25.46;47.21
55755;BME280;41674;52.290;-1.474;2023-06-14T11:59:03;101208.18;;;24.81;49.97
55755;BME280;41674;52.290;-1.474;2023-06-14T12:01:31;101202.92;;;26.04;45.63
55755;BME280;41674;52.290;-1.474;2023-06-14T12:04:01;101203.92;;;25.83;44.16
55755;BME280;41674;52.290;-1.474;2023-06-14T12:06:31;101204.32;;;25.56;45.66
55755;BME280;41674;52.290;-1.474;2023-06-14T12:09:00;101205.30;;;26.02;47.56
55755;BME280;41674;52.290;-1.474;2023-06-14T12:11:32;101204.69;;;25.84;45.70
55755;BME280;41674;52.290;-1.474;2023-06-14T12:13:59;101204.64;;;26.72;44.33
55755;BME280;41674;52.290;-1.474;2023-06-14T12:16:33;101202.49;;;26.19;44.54
55755;BME280;41674;52.290;-1.474;2023-06-14T12:19:00;101199.73;;;25.31;45.26
55755;BME280;41674;52.290;-1.474;2023-06-14T12:21:27;101200.99;;;24.81;46.35
55755;BME280;41674;52.290;-1.474;2023-06-14T12:23:57;101197.27;;;25.43;48.28
55755;BME280;41674;52.290;-1.474;2023-06-14T12:26:26;101195.90;;;25.95;44.88
55755;BME280;41674;52.290;-1.474;2023-06-14T12:28:56;101198.28;;;26.45;47.02
55755;BME280;41674;52.290;-1.474;2023-06-14T12:31:25;101195.51;;;26.75;45.42
55755;BME280;41674;52.290;-1.474;2023-06-14T12:33:54;101194.10;;;26.63;42.03
55755;BME280;41674;52.290;-1.474;2023-06-14T12:36:24;101190.27;;;26.64;42.41
55755;BME280;41674;52.290;-1.474;2023-06-14T12:38:53;101191.67;;;26.85;44.28
55755;BME280;41674;52.290;-1.474;2023-06-14T12:41:23;101189.62;;;27.36;39.01
55755;BME280;41674;52.290;-1.474;2023-06-14T12:43:52;101184.32;;;27.60;38.33
55755;BME280;41674;52.290;-1.474;2023-06-14T12:46:21;101193.61;;;27.29;38.12
55755;BME280;41674;52.290;-1.474;2023-06-14T12:48:51;101193.28;;;26.61;38.87
55755;BME280;41674;52.290;-1.474;2023-06-14T12:51:20;101184.78;;;27.68;35.84
55755;BME280;41674;52.290;-1.474;2023-06-14T12:53:50;101185.32;;;28.40;35.72
55755;BME280;41674;52.290;-1.474;2023-06-14T12:56:19;101186.58;;;27.80;36.53
55755;BME280;41674;52.290;-1.474;2023-06-14T12:58:49;101185.49;;;28.43;35.74
55755;BME280;41674;52.290;-1.474;2023-06-14T13:01:18;101187.65;;;26.92;36.78
55755;BME280;41674;52.290;-1.474;2023-06-14T13:03:48;101188.17;;;26.81;37.69